Time;durP1;ratioP1;P1;durP2;ratioP2;P2;SDS_P1;SDS_P2;PMS_P1;PMS_P2;Temp;Humidity;BMP_temperature;BMP_pressure;BME280_temperature;BME280_humidity;BME280_pressure;Samples;Min_cycle;Max_cycle;Signal;HPM_P1;HPM_P2
2022/09/24 00:02:31;;;;;;;10.40;8.00;;;;;;;5.67;90.63;96785.39;108326;1268;22583;-79
2022/09/24 00:05:01;;;;;;;8.80;6.80;;;;;;;5.62;90.71;96782.56;108301;1271;22578;-79
2022/09/24 00:07:33;;;;;;;10.00;7.20;;;;;;;5.61;90.85;96784.30;108309;1268;22612;-79
2022/09/24 00:10:04;;;;;;;9.40;6.60;;;;;;;5.59;90.82;96784.37;108235;1268;25839;-79
2022/09/24 00:12:36;;;;;;;8.80;6.80;;;;;;;5.55;90.63;96783.95;108297;1270;24271;-79
2022/09/24 00:15:09;;;;;;;9.20;7.10;;;;;;;5.55;90.87;96783.64;108292;1270;22522;-79
2022/09/24 00:17:43;;;;;;;8.70;6.80;;;;;;;5.55;90.88;96778.53;108344;1268;22523;-80
2022/09/24 00:20:14;;;;;;;8.40;7.00;;;;;;;5.57;91.11;96778.93;108273;1268;26501;-80
2022/09/24 00:22:45;;;;;;;8.10;6.70;;;;;;;5.59;91.10;96776.75;108282;1271;24268;-79
2022/09/24 00:28:05;;;;;;;9.30;7.00;;;;;;;5.53;90.95;96777.09;108328;1268;22628;-79
2022/09/24 00:30:37;;;;;;;8.20;6.20;;;;;;;5.49;90.75;96775.88;108273;1268;26296;-79
2022/09/24 00:33:09;;;;;;;8.30;6.60;;;;;;;5.48;90.95;96770.33;108272;1270;25402;-80
2022/09/24 00:35:40;;;;;;;8.00;6.10;;;;;;;5.50;90.89;96767.48;108265;1271;22822;-80
2022/09/24 00:38:11;;;;;;;8.40;6.30;;;;;;;5.51;90.90;96759.25;108305;1268;22603;-79
2022/09/24 00:40:42;;;;;;;9.20;6.40;;;;;;;5.54;91.08;96760.55;108207;1271;25750;-80
2022/09/24 00:43:32;;;;;;;8.00;6.40;;;;;;;5.59;91.37;96756.97;108281;1271;22569;-80
2022/09/24 00:46:14;;;;;;;8.30;6.60;;;;;;;5.67;91.60;96755.03;108302;1269;23695;-79
2022/09/24 00:48:46;;;;;;;11.30;7.20;;;;;;;5.70;91.74;96757.33;108178;1271;32522;-79
2022/09/24 00:51:21;;;;;;;7.70;6.90;;;;;;;5.74;91.62;96754.22;108313;1268;22601;-79
2022/09/24 00:53:57;;;;;;;8.40;6.80;;;;;;;5.72;91.54;96755.30;108299;1268;22547;-79
2022/09/24 00:56:29;;;;;;;9.20;6.80;;;;;;;5.71;91.44;96755.81;108217;1271;25396;-79
2022/09/24 00:59:03;;;;;;;8.80;7.10;;;;;;;5.67;91.17;96754.94;108222;1268;25348;-79
2022/09/24 01:01:34;;;;;;;11.00;7.60;;;;;;;5.65;91.13;96751.27;108219;1271;22528;-79
2022/09/24 01:04:07;;;;;;;9.30;7.40;;;;;;;5.62;91.14;96753.44;108316;1268;22475;-79
2022/09/24 01:06:38;;;;;;;10.60;8.40;;;;;;;5.60;91.14;96751.46;108216;1271;22591;-79
2022/09/24 01:09:10;;;;;;;10.00;7.10;;;;;;;5.59;90.80;96749.35;108166;1269;25805;-79
2022/09/24 01:11:49;;;;;;;9.50;7.40;;;;;;;5.52;90.74;96746.52;108305;1268;22524;-79
2022/09/24 01:14:51;;;;;;;9.60;7.50;;;;;;;5.46;90.70;96739.91;108303;1268;23074;-79
2022/09/24 01:17:30;;;;;;;10.20;8.00;;;;;;;5.41;90.90;96738.16;108187;1271;25560;-79
2022/09/24 01:20:35;;;;;;;10.30;7.40;;;;;;;5.35;91.10;96736.61;108256;1268;25617;-79
2022/09/24 01:23:28;;;;;;;11.80;8.60;;;;;;;5.23;91.12;96732.91;108310;1268;22526;-79
2022/09/24 01:26:18;;;;;;;13.10;8.60;;;;;;;5.11;91.48;96732.20;108254;1271;24283;-79
2022/09/24 01:29:06;;;;;;;10.80;7.70;;;;;;;4.99;91.65;96732.23;108148;1271;25165;-79
2022/09/24 01:31:45;;;;;;;9.50;7.80;;;;;;;5.02;91.90;96734.80;108215;1270;22580;-80
2022/09/24 01:34:22;;;;;;;11.50;9.40;;;;;;;5.03;91.84;96733.88;108180;1271;22803;-79
2022/09/24 01:36:56;;;;;;;11.00;8.70;;;;;;;5.08;92.10;96733.00;108282;1268;22563;-79
2022/09/24 01:39:28;;;;;;;9.30;6.40;;;;;;;5.17;92.58;96732.09;108158;1271;26157;-79
2022/09/24 01:42:01;;;;;;;11.50;8.40;;;;;;;5.36;92.90;96727.85;108165;1268;192801;-79
2022/09/24 01:44:34;;;;;;;10.70;7.50;;;;;;;5.46;93.08;96722.50;108251;1271;22559;-80
2022/09/24 01:47:07;;;;;;;11.80;6.40;;;;;;;5.60;93.22;96725.27;108291;1271;22553;-79
2022/09/24 01:49:38;;;;;;;11.80;8.60;;;;;;;5.71;93.00;96726.48;108277;1268;27410;-79
2022/09/24 01:52:14;;;;;;;11.00;8.30;;;;;;;5.79;92.79;96732.09;108277;1271;24213;-79
2022/09/24 01:54:50;;;;;;;12.10;8.80;;;;;;;5.84;92.56;96728.69;108310;1268;23243;-80
2022/09/24 01:57:25;;;;;;;12.20;8.90;;;;;;;5.84;92.28;96727.89;108318;1268;22700;-80
2022/09/24 02:00:02;;;;;;;12.20;9.20;;;;;;;5.80;91.97;96733.91;108255;1268;38295;-79
2022/09/24 02:02:39;;;;;;;12.20;9.10;;;;;;;5.74;91.95;96732.91;108314;1268;22625;-79
2022/09/24 02:05:16;;;;;;;13.30;9.60;;;;;;;5.70;91.78;96732.29;108362;1268;24393;-79
2022/09/24 02:07:53;;;;;;;11.20;8.50;;;;;;;5.65;91.72;96729.55;108243;1271;23083;-79
2022/09/24 02:10:24;;;;;;;12.70;9.70;;;;;;;5.60;91.67;96728.26;108250;1268;29696;-79
2022/09/24 02:13:02;;;;;;;11.80;8.90;;;;;;;5.58;91.66;96730.17;108305;1268;22786;-79
2022/09/24 02:15:37;;;;;;;12.60;9.40;;;;;;;5.53;91.78;96727.34;108322;1268;23692;-79
2022/09/24 02:18:11;;;;;;;11.20;8.80;;;;;;;5.49;91.86;96729.80;108330;1268;22533;-79
2022/09/24 02:20:44;;;;;;;12.30;10.00;;;;;;;5.45;91.71;96725.43;108235;1268;28997;-79
2022/09/24 02:23:18;;;;;;;11.60;9.20;;;;;;;5.39;91.63;96730.25;108313;1268;23931;-79
2022/09/24 02:25:53;;;;;;;12.40;9.30;;;;;;;5.33;91.66;96728.22;108341;1268;22594;-79
2022/09/24 02:28:24;;;;;;;13.20;9.90;;;;;;;5.31;91.76;96727.08;108242;1268;26165;-78
2022/09/24 02:31:02;;;;;;;12.90;8.80;;;;;;;5.29;91.77;96728.54;108321;1267;22672;-79
2022/09/24 02:36:24;;;;;;;14.80;10.00;;;;;;;5.29;91.96;96726.69;108303;1268;22581;-79
2022/09/24 02:38:56;;;;;;;13.10;9.90;;;;;;;5.28;91.84;96726.58;108210;1268;37026;-79
2022/09/24 02:41:28;;;;;;;11.10;8.60;;;;;;;5.27;91.62;96724.92;108309;1268;22869;-79
2022/09/24 02:43:59;;;;;;;12.10;8.80;;;;;;;5.28;91.87;96719.54;108331;1268;22536;-79
2022/09/24 02:46:31;;;;;;;15.90;9.50;;;;;;;5.30;91.75;96715.61;108332;1268;22541;-79
2022/09/24 02:49:02;;;;;;;13.40;9.00;;;;;;;5.27;91.73;96710.95;108115;1270;32099;-79
2022/09/24 02:51:33;;;;;;;12.70;9.60;;;;;;;5.27;91.61;96709.89;108316;1268;22618;-79
2022/09/24 02:54:05;;;;;;;11.20;7.90;;;;;;;5.28;91.54;96704.19;108190;1270;22574;-79
2022/09/24 02:56:36;;;;;;;12.70;8.50;;;;;;;5.27;91.51;96703.11;108296;1268;23892;-79
2022/09/24 02:59:08;;;;;;;11.40;9.20;;;;;;;5.27;91.38;96701.95;108255;1268;27827;-79
2022/09/24 03:01:40;;;;;;;10.50;8.00;;;;;;;5.25;91.44;96699.41;108192;1270;22834;-79
2022/09/24 03:04:12;;;;;;;11.80;8.50;;;;;;;5.24;91.37;96695.20;108319;1268;22875;-79
2022/09/24 03:06:43;;;;;;;12.30;9.00;;;;;;;5.23;91.12;96696.23;108309;1268;25386;-79
2022/09/24 03:09:14;;;;;;;12.50;8.10;;;;;;;5.24;91.12;96690.30;108211;1271;33033;-79
2022/09/24 03:11:46;;;;;;;10.70;8.20;;;;;;;5.26;91.13;96688.28;108321;1268;22538;-79
2022/09/24 03:14:17;;;;;;;12.00;8.40;;;;;;;5.25;91.11;96687.43;108326;1266;24166;-79
2022/09/24 03:16:48;;;;;;;10.50;8.00;;;;;;;5.26;90.96;96685.91;108213;1270;24229;-79
2022/09/24 03:19:19;;;;;;;11.00;8.90;;;;;;;5.26;90.81;96687.02;108215;1268;38653;-79
2022/09/24 03:21:50;;;;;;;11.60;8.30;;;;;;;5.26;90.78;96684.19;108326;1268;22731;-79
2022/09/24 03:24:21;;;;;;;11.90;9.20;;;;;;;5.26;90.89;96686.48;108224;1270;22561;-79
2022/09/24 03:26:52;;;;;;;12.00;8.40;;;;;;;5.25;90.71;96684.48;108347;1268;23278;-79
2022/09/24 03:32:09;;;;;;;11.10;8.20;;;;;;;5.23;90.56;96686.08;108335;1268;22578;-79
2022/09/24 03:34:40;;;;;;;11.90;8.60;;;;;;;5.22;90.65;96688.06;108212;1270;24238;-79
2022/09/24 03:37:14;;;;;;;10.90;8.20;;;;;;;5.20;90.60;96690.88;108302;1268;22561;-79
2022/09/24 03:39:45;;;;;;;10.70;8.30;;;;;;;5.18;90.51;96690.36;108181;1270;26523;-79
2022/09/24 03:42:16;;;;;;;10.10;8.30;;;;;;;5.17;90.60;96688.04;108318;1268;22541;-79
2022/09/24 03:44:47;;;;;;;9.80;7.60;;;;;;;5.15;90.30;96685.84;108258;1270;25931;-79
2022/09/24 03:47:18;;;;;;;12.50;7.80;;;;;;;5.12;90.41;96684.92;108333;1268;22572;-79
2022/09/24 03:49:49;;;;;;;9.70;7.60;;;;;;;5.07;90.39;96687.13;108178;1270;29616;-79
2022/09/24 03:52:20;;;;;;;11.20;8.30;;;;;;;5.05;90.53;96683.50;108236;1270;22565;-79
2022/09/24 03:54:52;;;;;;;11.40;8.80;;;;;;;5.05;90.76;96686.13;108225;1270;23132;-79
2022/09/24 03:57:23;;;;;;;12.00;8.40;;;;;;;5.06;90.73;96684.41;108199;1270;25247;-79
2022/09/24 03:59:54;;;;;;;10.60;7.90;;;;;;;5.08;90.82;96685.35;108126;1270;31732;-79
2022/09/24 04:02:25;;;;;;;10.80;8.30;;;;;;;5.12;90.81;96691.91;108297;1268;24393;-79
2022/09/24 04:04:57;;;;;;;10.30;7.50;;;;;;;5.17;90.86;96687.09;108260;1268;22525;-79
2022/09/24 04:07:28;;;;;;;11.40;7.50;;;;;;;5.21;90.93;96691.30;108306;1268;22565;-79
2022/09/24 04:09:59;;;;;;;9.60;7.00;;;;;;;5.24;90.76;96687.04;108164;1270;27374;-79
2022/09/24 04:12:30;;;;;;;11.30;8.00;;;;;;;5.26;90.74;96686.91;108336;1268;22582;-79
2022/09/24 04:15:02;;;;;;;10.10;7.00;;;;;;;5.25;90.60;96687.64;108205;1270;22528;-79
2022/09/24 04:17:34;;;;;;;10.60;7.00;;;;;;;5.23;90.67;96684.09;108300;1268;24326;-79
2022/09/24 04:20:07;;;;;;;9.20;7.40;;;;;;;5.22;90.48;96684.98;108153;1270;24974;-79
2022/09/24 04:22:39;;;;;;;9.00;6.10;;;;;;;5.24;90.57;96682.21;108223;1270;22480;-79
2022/09/24 04:25:11;;;;;;;10.40;7.30;;;;;;;5.26;90.57;96684.44;108296;1268;22535;-79
2022/09/24 04:27:42;;;;;;;15.80;7.40;;;;;;;5.27;90.40;96685.18;108248;1270;22525;-79
2022/09/24 04:30:15;;;;;;;10.00;7.20;;;;;;;5.26;90.34;96687.65;108144;1270;30082;-79
2022/09/24 04:32:46;;;;;;;10.20;7.50;;;;;;;5.29;90.37;96687.69;108280;1270;22544;-79
2022/09/24 04:35:18;;;;;;;9.60;6.90;;;;;;;5.33;90.20;96688.52;108290;1268;22537;-79
2022/09/24 04:37:49;;;;;;;9.60;7.00;;;;;;;5.37;90.13;96687.02;108267;1270;22541;-79
2022/09/24 04:40:21;;;;;;;9.10;6.60;;;;;;;5.47;90.16;96683.34;108164;1270;23530;-79
2022/09/24 04:42:52;;;;;;;10.20;7.20;;;;;;;5.59;89.93;96680.59;108200;1270;22539;-79
2022/09/24 04:45:25;;;;;;;8.30;6.20;;;;;;;5.62;89.56;96677.01;108290;1268;22635;-79
2022/09/24 04:47:57;;;;;;;9.00;6.70;;;;;;;5.62;89.51;96677.89;108252;1270;22605;-79
2022/09/24 04:50:32;;;;;;;7.80;5.90;;;;;;;5.64;89.11;96679.20;108252;1268;30796;-79
2022/09/24 04:53:03;;;;;;;10.30;7.20;;;;;;;5.64;89.16;96682.71;108350;1268;22591;-79
2022/09/24 04:55:35;;;;;;;10.40;6.60;;;;;;;5.67;89.06;96682.02;108234;1270;22712;-79
2022/09/24 04:58:07;;;;;;;8.90;6.80;;;;;;;5.90;89.04;96681.10;108223;1270;22479;-79
2022/09/24 05:00:40;;;;;;;8.70;6.50;;;;;;;6.13;88.81;96680.25;108256;1268;24770;-80
2022/09/24 05:03:11;;;;;;;9.40;6.50;;;;;;;6.45;88.08;96676.86;108309;1268;24227;-79
2022/09/24 05:05:42;;;;;;;8.10;6.00;;;;;;;6.61;87.28;96675.69;108317;1268;22794;-79
2022/09/24 05:08:14;;;;;;;8.90;6.20;;;;;;;6.45;86.50;96673.83;108290;1270;23862;-79
2022/09/24 05:10:46;;;;;;;7.40;6.00;;;;;;;6.27;86.17;96669.70;108324;1268;23845;-80
2022/09/24 05:13:17;;;;;;;6.60;5.10;;;;;;;6.14;86.22;96675.41;108252;1270;22878;-80
2022/09/24 05:15:48;;;;;;;8.10;5.50;;;;;;;6.12;86.37;96671.82;108232;1270;22619;-79
2022/09/24 05:18:19;;;;;;;7.90;6.40;;;;;;;6.10;86.15;96669.48;108267;1268;25183;-80
2022/09/24 05:20:51;;;;;;;9.70;6.30;;;;;;;6.03;86.03;96672.34;108304;1268;22587;-80
2022/09/24 05:23:22;;;;;;;8.60;6.10;;;;;;;5.97;86.28;96674.39;108262;1270;22540;-80
2022/09/24 05:28:43;;;;;;;9.00;5.70;;;;;;;5.98;86.44;96663.19;108209;1270;37675;-79
2022/09/24 05:31:14;;;;;;;8.90;6.00;;;;;;;6.04;86.52;96665.11;108277;1270;22559;-80
2022/09/24 05:33:45;;;;;;;7.70;4.70;;;;;;;6.19;86.70;96660.93;108337;1268;22760;-79
2022/09/24 05:36:17;;;;;;;7.20;5.90;;;;;;;6.66;86.32;96656.17;108260;1270;25294;-79
2022/09/24 05:38:48;;;;;;;8.00;4.90;;;;;;;7.22;85.18;96649.44;108182;1270;25349;-79
2022/09/24 05:41:22;;;;;;;7.40;5.90;;;;;;;7.69;83.48;96658.38;108266;1270;22556;-79
2022/09/24 05:43:57;;;;;;;7.90;5.60;;;;;;;8.25;82.35;96657.02;108329;1268;22543;-79
2022/09/24 05:46:29;;;;;;;6.70;5.10;;;;;;;8.85;80.91;96648.60;108352;1268;24236;-80
2022/09/24 05:49:01;;;;;;;5.70;4.50;;;;;;;9.04;78.06;96650.88;108257;1268;26807;-79
2022/09/24 05:51:34;;;;;;;5.90;4.80;;;;;;;9.05;77.12;96651.55;108325;1270;25244;-80
2022/09/24 05:54:07;;;;;;;7.80;5.20;;;;;;;9.26;76.91;96655.89;108310;1268;23240;-80
2022/09/24 05:56:39;;;;;;;5.60;5.00;;;;;;;9.50;75.70;96661.55;108308;1268;22555;-80
2022/09/24 05:59:10;;;;;;;7.40;5.00;;;;;;;9.74;75.07;96660.83;108168;1270;24681;-80
2022/09/24 06:01:41;;;;;;;7.10;4.70;;;;;;;9.95;73.77;96665.92;108263;1270;22663;-80
2022/09/24 06:04:13;;;;;;;7.50;5.30;;;;;;;10.18;73.33;96666.82;108239;1270;22659;-79
2022/09/24 06:06:44;;;;;;;5.80;4.40;;;;;;;10.36;71.53;96665.94;108251;1270;22542;-80
2022/09/24 06:09:16;;;;;;;10.10;6.10;;;;;;;10.46;70.67;96672.14;108299;1268;25950;-80
2022/09/24 06:11:49;;;;;;;6.80;5.30;;;;;;;10.24;68.62;96669.87;108338;1267;24202;-80
2022/09/24 06:14:21;;;;;;;13.80;7.70;;;;;;;10.11;69.99;96669.35;108250;1270;22800;-80
2022/09/24 06:16:53;;;;;;;5.80;4.70;;;;;;;10.89;70.99;96666.17;108338;1268;24235;-80
2022/09/24 06:19:24;;;;;;;6.80;4.30;;;;;;;11.58;68.87;96666.89;108205;1270;26592;-80
2022/09/24 06:21:56;;;;;;;5.50;4.40;;;;;;;11.64;65.99;96665.81;108333;1268;22545;-80
2022/09/24 06:24:27;;;;;;;5.90;4.30;;;;;;;11.62;65.42;96669.98;108271;1270;22560;-80
2022/09/24 06:26:58;;;;;;;7.10;3.90;;;;;;;11.85;65.59;96666.81;108258;1270;22555;-80
2022/09/24 06:29:30;;;;;;;6.20;5.60;;;;;;;11.82;63.66;96671.30;108244;1270;28658;-80
2022/09/24 06:32:02;;;;;;;6.00;5.00;;;;;;;12.02;64.78;96674.15;108339;1268;22543;-80
2022/09/24 06:34:34;;;;;;;5.20;4.60;;;;;;;12.61;64.38;96671.64;108358;1268;22761;-80
2022/09/24 06:37:05;;;;;;;4.80;4.00;;;;;;;12.73;63.32;96669.64;108285;1269;22781;-80
2022/09/24 06:39:37;;;;;;;4.50;4.00;;;;;;;12.58;62.50;96673.59;108212;1270;24186;-80
2022/09/24 06:42:08;;;;;;;5.50;4.80;;;;;;;12.61;63.58;96674.83;108336;1268;22568;-80
2022/09/24 06:44:41;;;;;;;4.90;4.00;;;;;;;12.82;62.42;96673.80;108327;1267;25258;-81
2022/09/24 06:47:13;;;;;;;4.40;3.60;;;;;;;12.81;62.84;96674.63;108267;1270;24309;-80
2022/09/24 06:49:44;;;;;;;4.40;3.80;;;;;;;12.85;62.58;96676.48;108173;1270;28215;-80
2022/09/24 06:52:16;;;;;;;4.90;3.60;;;;;;;12.42;61.01;96674.14;108329;1268;24390;-81
2022/09/24 06:54:47;;;;;;;4.30;3.60;;;;;;;12.00;61.53;96678.05;108302;1268;22541;-81
2022/09/24 06:57:19;;;;;;;4.80;4.20;;;;;;;11.58;61.98;96677.94;108311;1268;24973;-81
2022/09/24 06:59:51;;;;;;;5.10;4.30;;;;;;;11.34;63.28;96676.44;108194;1270;25948;-81
2022/09/24 07:02:22;;;;;;;5.30;3.90;;;;;;;11.11;63.80;96673.05;108332;1268;22541;-81
2022/09/24 07:04:53;;;;;;;5.40;4.30;;;;;;;11.11;64.71;96675.65;108247;1270;22627;-81
2022/09/24 07:07:32;;;;;;;5.80;3.70;;;;;;;11.14;64.69;96680.45;108347;1268;22577;-80
2022/09/24 07:10:05;;;;;;;5.10;4.10;;;;;;;11.07;64.82;96676.80;108245;1268;32829;-80
2022/09/24 07:12:41;;;;;;;5.70;4.90;;;;;;;11.02;64.73;96677.48;108279;1269;22557;-81
2022/09/24 07:15:15;;;;;;;5.20;4.40;;;;;;;10.71;64.57;96679.00;108234;1270;22582;-80
2022/09/24 07:17:47;;;;;;;5.30;4.50;;;;;;;10.53;65.44;96688.40;108352;1268;22543;-81
2022/09/24 07:20:18;;;;;;;6.60;4.90;;;;;;;10.58;66.17;96690.29;108222;1268;33510;-81
2022/09/24 07:22:49;;;;;;;7.30;4.50;;;;;;;10.69;66.49;96692.45;108330;1268;22539;-81
2022/09/24 07:25:21;;;;;;;6.50;4.30;;;;;;;10.64;66.01;96695.87;108260;1270;23364;-81
2022/09/24 07:27:55;;;;;;;4.80;4.10;;;;;;;10.52;66.08;96696.67;108326;1268;22526;-81
2022/09/24 07:30:26;;;;;;;7.50;4.90;;;;;;;10.54;66.53;96694.02;108218;1270;25965;-81
2022/09/24 07:32:58;;;;;;;5.40;4.60;;;;;;;10.77;66.54;96697.20;108265;1270;22531;-81
2022/09/24 07:35:31;;;;;;;5.80;4.30;;;;;;;11.33;66.82;96697.35;108324;1268;24243;-81
2022/09/24 07:38:05;;;;;;;4.80;4.20;;;;;;;12.06;66.63;96699.58;108300;1270;22612;-81
2022/09/24 07:40:37;;;;;;;4.80;4.30;;;;;;;12.71;65.22;96699.89;108290;1268;37736;-81
2022/09/24 07:43:12;;;;;;;4.80;4.10;;;;;;;13.19;63.87;96703.67;108324;1268;23944;-80
2022/09/24 07:45:45;;;;;;;5.80;4.10;;;;;;;13.03;62.68;96700.92;108324;1270;24056;-80
2022/09/24 07:48:18;;;;;;;5.20;4.70;;;;;;;12.66;62.23;96703.04;108322;1267;24138;-80
2022/09/24 07:50:50;;;;;;;4.70;4.10;;;;;;;12.93;63.51;96705.83;108328;1268;22569;-80
2022/09/24 07:53:22;;;;;;;5.20;4.10;;;;;;;13.28;62.36;96704.64;108245;1270;24245;-80
2022/09/24 07:55:55;;;;;;;5.50;4.60;;;;;;;12.91;61.64;96706.98;108222;1270;23818;-80
2022/09/24 07:58:29;;;;;;;5.70;4.30;;;;;;;12.33;61.89;96709.41;108173;1270;25368;-80
2022/09/24 08:01:01;;;;;;;6.20;4.80;;;;;;;11.87;62.56;96711.63;108253;1270;22650;-80
2022/09/24 08:03:33;;;;;;;4.40;4.00;;;;;;;11.84;63.57;96712.32;108347;1268;24245;-80
2022/09/24 08:06:05;;;;;;;5.30;3.90;;;;;;;11.94;64.10;96711.18;108329;1268;22670;-80
2022/09/24 08:08:39;;;;;;;6.70;4.30;;;;;;;12.39;64.43;96711.09;108248;1268;40470;-80
2022/09/24 08:11:13;;;;;;;5.30;4.40;;;;;;;13.06;63.28;96705.56;108216;1270;24264;-80
2022/09/24 08:13:45;;;;;;;4.70;3.80;;;;;;;13.15;62.11;96710.64;108230;1270;22549;-80
2022/09/24 08:16:18;;;;;;;5.80;3.80;;;;;;;13.14;62.01;96710.81;108265;1269;24192;-80
2022/09/24 08:18:49;;;;;;;4.10;3.30;;;;;;;12.90;61.41;96711.95;108229;1270;23818;-81
2022/09/24 08:21:21;;;;;;;4.00;3.60;;;;;;;12.85;61.16;96715.48;108273;1270;22571;-81
2022/09/24 08:23:52;;;;;;;4.50;3.90;;;;;;;12.72;61.23;96712.43;108251;1270;22545;-81
2022/09/24 08:26:23;;;;;;;6.40;4.40;;;;;;;13.05;62.07;96708.77;108242;1270;22630;-80
2022/09/24 08:28:55;;;;;;;4.10;3.70;;;;;;;13.36;61.80;96712.02;108216;1270;24228;-80
2022/09/24 08:31:26;;;;;;;4.70;4.10;;;;;;;13.52;61.74;96712.42;108329;1268;22658;-80
2022/09/24 08:33:59;;;;;;;6.10;4.10;;;;;;;13.67;61.67;96706.99;108348;1269;24240;-80
2022/09/24 08:36:31;;;;;;;4.60;3.90;;;;;;;13.96;62.35;96707.70;108263;1270;22534;-80
2022/09/24 08:39:02;;;;;;;6.30;4.20;;;;;;;14.35;61.29;96704.61;108177;1270;24417;-80
2022/09/24 08:41:57;;;;;;;5.60;4.40;;;;;;;14.51;61.06;96704.29;108333;1268;22593;-80
2022/09/24 08:47:36;;;;;;;5.70;4.20;;;;;;;14.32;61.55;96704.40;108331;1268;22539;-80
2022/09/24 08:50:17;;;;;;;4.60;4.00;;;;;;;14.42;61.23;96697.79;108202;1270;32030;-80
2022/09/24 08:53:12;;;;;;;4.60;4.00;;;;;;;14.39;61.39;96698.70;108277;1270;22529;-80
2022/09/24 08:55:47;;;;;;;6.40;3.80;;;;;;;14.38;61.11;96699.07;108334;1268;22537;-81
2022/09/24 08:58:44;;;;;;;5.50;3.40;;;;;;;14.38;60.59;96695.91;108316;1270;22562;-81
2022/09/24 09:01:31;;;;;;;4.60;3.80;;;;;;;14.01;59.52;96699.98;108348;1268;24359;-80
2022/09/24 09:04:17;;;;;;;5.10;3.80;;;;;;;13.61;59.63;96704.86;108356;1268;22626;-80
2022/09/24 09:07:00;;;;;;;5.50;3.40;;;;;;;13.66;59.87;96703.28;108306;1268;25248;-81
2022/09/24 09:09:43;;;;;;;4.10;3.60;;;;;;;13.77;60.69;96699.88;108222;1270;27765;-80
2022/09/24 09:12:20;;;;;;;5.30;3.70;;;;;;;14.09;61.00;96699.60;108344;1268;22565;-80
2022/09/24 09:15:00;;;;;;;4.10;3.50;;;;;;;14.39;60.34;96691.55;108306;1268;22555;-80
2022/09/24 09:17:44;;;;;;;5.20;3.60;;;;;;;14.38;60.32;96686.41;108352;1268;24288;-80
2022/09/24 09:20:21;;;;;;;5.00;3.60;;;;;;;14.40;59.93;96684.80;108264;1268;32174;-80
2022/09/24 09:22:53;;;;;;;4.20;3.50;;;;;;;14.40;59.61;96681.29;108330;1268;25376;-80
2022/09/24 09:25:29;;;;;;;4.80;3.70;;;;;;;14.26;59.28;96690.08;108317;1268;24251;-80
2022/09/24 09:28:07;;;;;;;4.80;3.90;;;;;;;14.14;59.63;96691.84;108345;1268;22554;-80
2022/09/24 09:30:44;;;;;;;5.40;3.50;;;;;;;14.17;59.68;96686.30;108182;1270;27514;-80
2022/09/24 09:33:30;;;;;;;4.70;3.60;;;;;;;14.17;59.97;96683.90;108315;1268;22539;-80
2022/09/24 09:36:16;;;;;;;4.10;3.60;;;;;;;14.22;60.25;96681.16;108251;1270;23192;-81
2022/09/24 09:38:58;;;;;;;4.90;3.30;;;;;;;14.20;59.98;96684.86;108182;1270;30302;-80
2022/09/24 09:41:38;;;;;;;4.20;3.30;;;;;;;14.09;60.17;96680.69;108246;1269;22672;-80
2022/09/24 09:44:16;;;;;;;4.00;3.50;;;;;;;13.99;60.44;96674.97;108339;1268;23906;-80
2022/09/24 09:46:52;;;;;;;3.90;3.50;;;;;;;13.87;60.34;96673.34;108311;1268;23775;-80
2022/09/24 09:49:28;;;;;;;5.80;3.70;;;;;;;13.75;60.48;96675.55;108256;1268;26198;-80
2022/09/24 09:52:02;;;;;;;4.40;3.50;;;;;;;13.69;60.89;96673.02;108260;1270;22530;-80
2022/09/24 09:54:40;;;;;;;4.80;3.60;;;;;;;13.65;60.77;96673.02;108370;1268;22554;-80
2022/09/24 09:57:17;;;;;;;5.60;3.30;;;;;;;13.62;60.30;96672.64;108357;1268;22768;-81
2022/09/24 09:59:52;;;;;;;6.00;3.40;;;;;;;13.61;60.64;96671.08;108218;1270;33802;-80
2022/09/24 10:02:28;;;;;;;3.80;2.80;;;;;;;13.65;60.68;96666.58;108352;1270;25238;-81
2022/09/24 10:05:02;;;;;;;4.50;3.00;;;;;;;13.73;60.46;96660.67;108256;1270;24946;-80
2022/09/24 10:07:44;;;;;;;3.70;3.30;;;;;;;13.66;59.85;96657.18;108281;1270;22523;-81
2022/09/24 10:10:22;;;;;;;4.40;3.40;;;;;;;13.71;60.22;96655.17;108184;1270;32839;-81
2022/09/24 10:13:06;;;;;;;4.70;2.70;;;;;;;13.80;60.26;96655.20;108347;1268;22540;-81
2022/09/24 10:15:49;;;;;;;3.80;3.30;;;;;;;13.90;59.69;96650.13;108345;1268;23071;-81
2022/09/24 10:18:29;;;;;;;4.80;4.10;;;;;;;13.83;59.88;96654.77;108356;1268;24301;-81
2022/09/24 10:21:02;;;;;;;5.50;4.10;;;;;;;13.85;60.65;96657.61;108348;1268;22763;-81
2022/09/24 10:23:39;;;;;;;6.20;4.20;;;;;;;13.96;60.61;96655.95;108251;1270;24164;-81
2022/09/24 10:26:11;;;;;;;6.10;3.60;;;;;;;14.10;60.07;96651.91;108294;1268;22553;-81
2022/09/24 10:31:40;;;;;;;6.00;3.80;;;;;;;14.30;59.86;96643.27;108195;1270;22717;-81
2022/09/24 10:34:25;;;;;;;5.00;3.80;;;;;;;14.41;59.66;96640.31;108127;1270;23846;-81
2022/09/24 10:37:03;;;;;;;4.20;3.40;;;;;;;14.43;59.38;96639.69;108280;1270;22552;-81
2022/09/24 10:39:36;;;;;;;4.80;3.10;;;;;;;14.38;59.08;96636.13;108242;1269;29316;-81
2022/09/24 10:42:22;;;;;;;3.80;3.30;;;;;;;14.48;59.22;96639.20;108181;1270;22565;-81
2022/09/24 10:44:54;;;;;;;4.30;3.20;;;;;;;14.41;57.86;96643.77;108296;1269;22566;-81
2022/09/24 10:47:43;;;;;;;4.20;2.90;;;;;;;14.39;58.23;96643.45;108296;1269;22558;-81
2022/09/24 10:50:41;;;;;;;3.60;3.00;;;;;;;14.44;58.21;96640.52;108187;1270;27812;-81
2022/09/24 10:53:23;;;;;;;4.30;3.00;;;;;;;14.35;57.62;96635.54;108175;1270;24260;-81
2022/09/24 10:56:04;;;;;;;3.60;3.00;;;;;;;14.29;57.72;96634.92;108165;1270;22551;-82
2022/09/24 10:59:00;;;;;;;3.50;2.80;;;;;;;14.27;57.83;96633.67;108183;1270;35699;-81
2022/09/24 11:01:42;;;;;;;3.60;3.00;;;;;;;14.29;57.59;96631.98;108286;1270;22533;-81
2022/09/24 11:04:30;;;;;;;3.50;3.00;;;;;;;14.31;58.07;96631.66;108262;1270;22539;-81
2022/09/24 11:07:21;;;;;;;4.40;3.10;;;;;;;14.18;57.53;96631.75;108261;1268;22569;-81
2022/09/24 11:10:04;;;;;;;4.20;3.20;;;;;;;14.17;58.73;96633.84;108212;1270;25484;-81
2022/09/24 11:12:46;;;;;;;4.80;3.30;;;;;;;14.27;57.76;96626.75;108185;1270;24315;-81
2022/09/24 11:15:29;;;;;;;4.10;2.80;;;;;;;14.33;57.74;96621.33;108258;1270;22517;-81
2022/09/24 11:18:16;;;;;;;3.90;3.00;;;;;;;14.45;57.83;96622.89;108143;1270;24384;-82
2022/09/24 11:20:59;;;;;;;4.00;3.40;;;;;;;14.52;57.75;96624.78;108251;1270;22564;-81
2022/09/24 11:23:50;;;;;;;3.20;2.70;;;;;;;14.66;58.01;96623.27;108304;1270;22523;-81
2022/09/24 11:26:33;;;;;;;3.60;2.80;;;;;;;14.72;57.54;96620.48;108285;1270;22566;-81
2022/09/24 11:29:27;;;;;;;3.90;3.00;;;;;;;14.77;57.41;96618.73;108118;1270;26701;-81
2022/09/24 11:32:09;;;;;;;4.10;3.00;;;;;;;14.87;57.41;96617.19;108178;1270;24266;-81
2022/09/24 11:34:59;;;;;;;3.50;3.10;;;;;;;14.94;57.02;96613.19;108170;1270;23862;-81
2022/09/24 11:37:47;;;;;;;3.60;3.00;;;;;;;15.02;55.47;96604.68;108166;1270;22566;-81
2022/09/24 11:40:40;;;;;;;3.80;2.90;;;;;;;14.92;55.32;96603.15;108182;1270;24354;-81
2022/09/24 11:43:33;;;;;;;3.20;2.60;;;;;;;15.03;55.42;96596.18;108158;1270;25217;-81
2022/09/24 11:46:19;;;;;;;4.40;2.80;;;;;;;15.39;55.22;96596.39;108244;1270;22840;-81
2022/09/24 11:49:12;;;;;;;4.00;2.80;;;;;;;15.71;54.70;96594.70;108165;1270;36421;-81
2022/09/24 11:51:55;;;;;;;4.00;2.70;;;;;;;15.87;54.85;96589.09;108267;1269;22579;-82
2022/09/24 11:54:32;;;;;;;3.30;2.50;;;;;;;15.85;54.82;96584.91;108248;1270;22543;-81
2022/09/24 11:57:09;;;;;;;3.80;2.60;;;;;;;15.73;54.40;96586.02;108274;1270;24236;-81
2022/09/24 11:59:50;;;;;;;5.40;2.30;;;;;;;15.72;54.89;96589.11;108161;1270;38219;-81
2022/09/24 12:02:29;;;;;;;5.20;3.70;;;;;;;15.83;54.76;96585.64;108161;1270;22579;-81
2022/09/24 12:05:07;;;;;;;3.70;3.00;;;;;;;15.63;54.38;96584.05;108248;1270;22546;-81
2022/09/24 12:07:45;;;;;;;3.70;3.00;;;;;;;15.45;54.80;96587.59;108191;1269;24270;-81
2022/09/24 12:10:28;;;;;;;6.10;3.90;;;;;;;15.48;55.48;96586.96;108210;1270;28357;-81
2022/09/24 12:13:05;;;;;;;6.10;3.60;;;;;;;15.59;55.38;96586.03;108163;1270;24644;-81
2022/09/24 12:15:47;;;;;;;5.20;3.70;;;;;;;15.56;55.44;96591.17;108259;1270;22665;-81
2022/09/24 12:18:26;;;;;;;5.60;3.40;;;;;;;15.56;55.49;96590.63;108187;1270;22588;-81
2022/09/24 12:21:05;;;;;;;4.80;3.60;;;;;;;15.62;55.65;96591.24;108311;1269;24011;-81
2022/09/24 12:23:41;;;;;;;3.50;2.70;;;;;;;15.60;55.70;96592.15;108172;1270;22535;-82